sensor_id;sensor_type;location;lat;lon;timestamp;P1;durP1;ratioP1;P2;durP2;ratioP2
16288;SDS011;26089;43.538;5.250;2022-09-27T00:00:10;1.97;;;1.87;;
16288;SDS011;26089;43.538;5.250;2022-09-27T00:02:38;2.23;;;2.00;;
16288;SDS011;26089;43.538;5.250;2022-09-27T00:05:05;2.20;;;2.07;;
16288;SDS011;26089;43.538;5.250;2022-09-27T00:07:34;2.13;;;1.90;;
16288;SDS011;26089;43.538;5.250;2022-09-27T00:10:01;2.47;;;2.10;;
16288;SDS011;26089;43.538;5.250;2022-09-27T00:12:29;1.77;;;1.70;;
16288;SDS011;26089;43.538;5.250;2022-09-27T00:14:56;2.27;;;2.17;;
16288;SDS011;26089;43.538;5.250;2022-09-27T00:17:23;3.53;;;1.80;;
16288;SDS011;26089;43.538;5.250;2022-09-27T00:19:51;2.10;;;1.90;;
16288;SDS011;26089;43.538;5.250;2022-09-27T00:22:20;1.87;;;1.77;;
16288;SDS011;26089;43.538;5.250;2022-09-27T00:24:48;1.77;;;1.67;;
16288;SDS011;26089;43.538;5.250;2022-09-27T00:27:16;2.00;;;1.90;;
16288;SDS011;26089;43.538;5.250;2022-09-27T00:29:43;2.20;;;1.60;;
16288;SDS011;26089;43.538;5.250;2022-09-27T00:32:11;3.60;;;2.13;;
16288;SDS011;26089;43.538;5.250;2022-09-27T00:34:38;2.67;;;2.43;;
16288;SDS011;26089;43.538;5.250;2022-09-27T00:37:06;2.20;;;2.10;;
16288;SDS011;26089;43.538;5.250;2022-09-27T00:39:35;2.73;;;2.40;;
16288;SDS011;26089;43.538;5.250;2022-09-27T00:42:05;2.30;;;2.10;;
16288;SDS011;26089;43.538;5.250;2022-09-27T00:47:26;2.70;;;2.00;;
16288;SDS011;26089;43.538;5.250;2022-09-27T00:50:01;2.50;;;2.30;;
16288;SDS011;26089;43.538;5.250;2022-09-27T00:52:32;3.83;;;2.50;;
16288;SDS011;26089;43.538;5.250;2022-09-27T00:55:07;1.93;;;1.83;;
16288;SDS011;26089;43.538;5.250;2022-09-27T00:57:39;1.90;;;1.80;;
16288;SDS011;26089;43.538;5.250;2022-09-27T01:00:08;2.30;;;1.80;;
16288;SDS011;26089;43.538;5.250;2022-09-27T01:02:37;3.60;;;2.10;;
16288;SDS011;26089;43.538;5.250;2022-09-27T01:05:08;2.20;;;2.10;;
16288;SDS011;26089;43.538;5.250;2022-09-27T01:07:36;2.00;;;1.80;;
16288;SDS011;26089;43.538;5.250;2022-09-27T01:10:03;3.73;;;2.00;;
16288;SDS011;26089;43.538;5.250;2022-09-27T01:12:34;1.93;;;1.83;;
16288;SDS011;26089;43.538;5.250;2022-09-27T01:15:17;2.77;;;1.93;;
16288;SDS011;26089;43.538;5.250;2022-09-27T01:17:53;4.57;;;2.13;;
16288;SDS011;26089;43.538;5.250;2022-09-27T01:20:44;5.60;;;2.03;;
16288;SDS011;26089;43.538;5.250;2022-09-27T01:23:39;3.00;;;1.90;;
16288;SDS011;26089;43.538;5.250;2022-09-27T01:26:23;3.57;;;2.03;;
16288;SDS011;26089;43.538;5.250;2022-09-27T01:29:06;3.07;;;2.17;;
16288;SDS011;26089;43.538;5.250;2022-09-27T01:31:40;2.50;;;2.10;;
16288;SDS011;26089;43.538;5.250;2022-09-27T01:34:17;2.23;;;2.10;;
16288;SDS011;26089;43.538;5.250;2022-09-27T01:36:53;1.90;;;1.80;;
16288;SDS011;26089;43.538;5.250;2022-09-27T01:39:31;3.00;;;2.00;;
16288;SDS011;26089;43.538;5.250;2022-09-27T01:42:11;3.53;;;1.97;;
16288;SDS011;26089;43.538;5.250;2022-09-27T01:44:48;2.07;;;1.87;;
16288;SDS011;26089;43.538;5.250;2022-09-27T01:47:20;1.90;;;1.80;;
16288;SDS011;26089;43.538;5.250;2022-09-27T01:49:52;2.30;;;1.83;;
16288;SDS011;26089;43.538;5.250;2022-09-27T01:52:23;3.03;;;1.97;;
16288;SDS011;26089;43.538;5.250;2022-09-27T01:54:56;1.90;;;1.80;;
16288;SDS011;26089;43.538;5.250;2022-09-27T01:57:30;1.63;;;1.53;;
16288;SDS011;26089;43.538;5.250;2022-09-27T02:00:01;1.80;;;1.70;;
16288;SDS011;26089;43.538;5.250;2022-09-27T02:02:34;1.97;;;1.87;;
16288;SDS011;26089;43.538;5.250;2022-09-27T02:05:06;2.33;;;1.90;;
16288;SDS011;26089;43.538;5.250;2022-09-27T02:07:36;1.90;;;1.80;;
16288;SDS011;26089;43.538;5.250;2022-09-27T02:10:08;2.50;;;1.70;;
16288;SDS011;26089;43.538;5.250;2022-09-27T02:12:39;2.57;;;1.83;;
16288;SDS011;26089;43.538;5.250;2022-09-27T02:15:11;1.60;;;1.50;;
16288;SDS011;26089;43.538;5.250;2022-09-27T02:17:43;2.73;;;1.70;;
16288;SDS011;26089;43.538;5.250;2022-09-27T02:20:14;2.50;;;1.80;;
16288;SDS011;26089;43.538;5.250;2022-09-27T02:22:50;1.80;;;1.70;;
16288;SDS011;26089;43.538;5.250;2022-09-27T02:25:23;3.60;;;1.90;;
16288;SDS011;26089;43.538;5.250;2022-09-27T02:27:53;2.13;;;1.87;;
16288;SDS011;26089;43.538;5.250;2022-09-27T02:30:24;2.13;;;2.00;;
16288;SDS011;26089;43.538;5.250;2022-09-27T02:32:53;1.87;;;1.70;;
16288;SDS011;26089;43.538;5.250;2022-09-27T02:35:21;1.77;;;1.67;;
16288;SDS011;26089;43.538;5.250;2022-09-27T02:37:53;1.97;;;1.87;;
16288;SDS011;26089;43.538;5.250;2022-09-27T02:40:21;2.20;;;1.70;;
16288;SDS011;26089;43.538;5.250;2022-09-27T02:42:49;1.53;;;1.53;;
16288;SDS011;26089;43.538;5.250;2022-09-27T02:45:17;3.03;;;1.80;;
16288;SDS011;26089;43.538;5.250;2022-09-27T02:47:53;1.80;;;1.70;;
16288;SDS011;26089;43.538;5.250;2022-09-27T02:53:36;2.20;;;1.73;;
16288;SDS011;26089;43.538;5.250;2022-09-27T02:56:12;2.40;;;1.70;;
16288;SDS011;26089;43.538;5.250;2022-09-27T02:58:49;1.60;;;1.50;;
16288;SDS011;26089;43.538;5.250;2022-09-27T03:01:26;1.70;;;1.60;;
16288;SDS011;26089;43.538;5.250;2022-09-27T03:03:59;2.00;;;1.63;;
16288;SDS011;26089;43.538;5.250;2022-09-27T03:06:33;1.77;;;1.67;;
16288;SDS011;26089;43.538;5.250;2022-09-27T03:09:02;1.87;;;1.77;;
16288;SDS011;26089;43.538;5.250;2022-09-27T03:11:29;4.20;;;1.60;;
16288;SDS011;26089;43.538;5.250;2022-09-27T03:13:57;1.60;;;1.50;;
16288;SDS011;26089;43.538;5.250;2022-09-27T03:16:24;1.77;;;1.67;;
16288;SDS011;26089;43.538;5.250;2022-09-27T03:18:51;1.97;;;1.77;;
16288;SDS011;26089;43.538;5.250;2022-09-27T03:21:20;1.53;;;1.43;;
16288;SDS011;26089;43.538;5.250;2022-09-27T03:23:47;3.50;;;1.70;;
16288;SDS011;26089;43.538;5.250;2022-09-27T03:26:14;2.37;;;1.80;;
16288;SDS011;26089;43.538;5.250;2022-09-27T03:28:41;3.03;;;2.30;;
16288;SDS011;26089;43.538;5.250;2022-09-27T03:31:08;5.67;;;1.80;;
16288;SDS011;26089;43.538;5.250;2022-09-27T03:33:35;1.87;;;1.70;;
16288;SDS011;26089;43.538;5.250;2022-09-27T03:36:02;2.10;;;1.80;;
16288;SDS011;26089;43.538;5.250;2022-09-27T03:38:30;2.97;;;2.00;;
16288;SDS011;26089;43.538;5.250;2022-09-27T03:40:57;1.67;;;1.57;;
16288;SDS011;26089;43.538;5.250;2022-09-27T03:43:24;1.70;;;1.57;;
16288;SDS011;26089;43.538;5.250;2022-09-27T03:45:52;5.97;;;1.60;;
16288;SDS011;26089;43.538;5.250;2022-09-27T03:48:19;2.30;;;1.60;;
16288;SDS011;26089;43.538;5.250;2022-09-27T03:50:46;1.80;;;1.70;;
16288;SDS011;26089;43.538;5.250;2022-09-27T03:53:13;3.87;;;1.70;;
16288;SDS011;26089;43.538;5.250;2022-09-27T03:55:43;1.80;;;1.57;;
16288;SDS011;26089;43.538;5.250;2022-09-27T03:58:12;4.13;;;1.60;;
16288;SDS011;26089;43.538;5.250;2022-09-27T04:00:39;1.80;;;1.40;;
16288;SDS011;26089;43.538;5.250;2022-09-27T04:03:08;2.40;;;1.50;;
16288;SDS011;26089;43.538;5.250;2022-09-27T04:05:35;1.53;;;1.20;;
16288;SDS011;26089;43.538;5.250;2022-09-27T04:08:02;4.50;;;1.50;;
16288;SDS011;26089;43.538;5.250;2022-09-27T04:10:30;2.60;;;1.40;;
16288;SDS011;26089;43.538;5.250;2022-09-27T04:12:58;2.30;;;1.30;;
16288;SDS011;26089;43.538;5.250;2022-09-27T04:15:25;1.60;;;1.50;;
16288;SDS011;26089;43.538;5.250;2022-09-27T04:17:53;2.43;;;1.57;;
16288;SDS011;26089;43.538;5.250;2022-09-27T04:20:20;1.87;;;1.77;;
16288;SDS011;26089;43.538;5.250;2022-09-27T04:22:47;2.00;;;1.80;;
16288;SDS011;26089;43.538;5.250;2022-09-27T04:25:14;1.43;;;1.40;;
16288;SDS011;26089;43.538;5.250;2022-09-27T04:27:43;3.00;;;1.90;;
16288;SDS011;26089;43.538;5.250;2022-09-27T04:30:12;1.60;;;1.50;;
16288;SDS011;26089;43.538;5.250;2022-09-27T04:32:40;1.70;;;1.60;;
16288;SDS011;26089;43.538;5.250;2022-09-27T04:35:07;1.60;;;1.50;;
16288;SDS011;26089;43.538;5.250;2022-09-27T04:37:52;1.50;;;1.33;;
16288;SDS011;26089;43.538;5.250;2022-09-27T04:40:19;4.13;;;1.57;;
16288;SDS011;26089;43.538;5.250;2022-09-27T04:42:47;2.57;;;1.67;;
16288;SDS011;26089;43.538;5.250;2022-09-27T04:45:16;3.03;;;1.70;;
16288;SDS011;26089;43.538;5.250;2022-09-27T04:47:43;4.43;;;1.93;;
16288;SDS011;26089;43.538;5.250;2022-09-27T04:50:10;4.87;;;1.63;;
16288;SDS011;26089;43.538;5.250;2022-09-27T04:52:39;2.50;;;1.60;;
16288;SDS011;26089;43.538;5.250;2022-09-27T04:55:07;2.10;;;1.50;;
16288;SDS011;26089;43.538;5.250;2022-09-27T04:57:35;1.67;;;1.57;;
16288;SDS011;26089;43.538;5.250;2022-09-27T05:00:03;1.53;;;1.53;;
16288;SDS011;26089;43.538;5.250;2022-09-27T05:02:32;2.83;;;2.43;;
16288;SDS011;26089;43.538;5.250;2022-09-27T05:04:59;1.77;;;1.67;;
16288;SDS011;26089;43.538;5.250;2022-09-27T05:07:26;2.03;;;1.90;;
16288;SDS011;26089;43.538;5.250;2022-09-27T05:09:54;1.50;;;1.40;;
16288;SDS011;26089;43.538;5.250;2022-09-27T05:12:21;1.87;;;1.77;;
16288;SDS011;26089;43.538;5.250;2022-09-27T05:14:51;4.30;;;1.70;;
16288;SDS011;26089;43.538;5.250;2022-09-27T05:17:18;2.20;;;2.00;;
16288;SDS011;26089;43.538;5.250;2022-09-27T05:19:47;2.77;;;1.67;;
16288;SDS011;26089;43.538;5.250;2022-09-27T05:22:15;1.90;;;1.73;;
16288;SDS011;26089;43.538;5.250;2022-09-27T05:24:42;1.87;;;1.77;;
16288;SDS011;26089;43.538;5.250;2022-09-27T05:27:10;1.73;;;1.63;;
16288;SDS011;26089;43.538;5.250;2022-09-27T05:29:42;1.63;;;1.53;;
16288;SDS011;26089;43.538;5.250;2022-09-27T05:32:09;2.10;;;1.90;;
16288;SDS011;26089;43.538;5.250;2022-09-27T05:34:36;2.77;;;2.03;;
16288;SDS011;26089;43.538;5.250;2022-09-27T05:37:05;2.47;;;2.23;;
16288;SDS011;26089;43.538;5.250;2022-09-27T05:39:32;2.47;;;1.90;;
16288;SDS011;26089;43.538;5.250;2022-09-27T05:41:59;1.80;;;1.80;;
16288;SDS011;26089;43.538;5.250;2022-09-27T05:44:29;2.30;;;2.10;;
16288;SDS011;26089;43.538;5.250;2022-09-27T05:46:56;2.07;;;1.90;;
16288;SDS011;26089;43.538;5.250;2022-09-27T05:49:25;2.40;;;2.20;;
16288;SDS011;26089;43.538;5.250;2022-09-27T05:51:52;4.70;;;2.47;;
16288;SDS011;26089;43.538;5.250;2022-09-27T05:54:21;4.30;;;2.60;;
16288;SDS011;26089;43.538;5.250;2022-09-27T05:56:48;3.87;;;2.50;;
16288;SDS011;26089;43.538;5.250;2022-09-27T05:59:16;3.17;;;2.50;;
16288;SDS011;26089;43.538;5.250;2022-09-27T06:01:43;2.60;;;2.40;;
16288;SDS011;26089;43.538;5.250;2022-09-27T06:04:10;4.63;;;2.50;;
16288;SDS011;26089;43.538;5.250;2022-09-27T06:06:37;3.27;;;2.30;;
16288;SDS011;26089;43.538;5.250;2022-09-27T06:09:04;2.30;;;2.10;;
16288;SDS011;26089;43.538;5.250;2022-09-27T06:11:36;3.40;;;2.10;;
16288;SDS011;26089;43.538;5.250;2022-09-27T06:14:03;2.00;;;1.90;;
16288;SDS011;26089;43.538;5.250;2022-09-27T06:16:30;2.00;;;1.80;;
16288;SDS011;26089;43.538;5.250;2022-09-27T06:18:57;1.87;;;1.77;;
16288;SDS011;26089;43.538;5.250;2022-09-27T06:21:24;1.83;;;1.40;;
16288;SDS011;26089;43.538;5.250;2022-09-27T06:23:52;1.70;;;1.43;;
16288;SDS011;26089;43.538;5.250;2022-09-27T06:26:20;1.63;;;1.53;;
16288;SDS011;26089;43.538;5.250;2022-09-27T06:28:49;2.10;;;1.53;;
16288;SDS011;26089;43.538;5.250;2022-09-27T06:31:16;1.73;;;1.63;;
16288;SDS011;26089;43.538;5.250;2022-09-27T06:33:44;1.80;;;1.40;;
16288;SDS011;26089;43.538;5.250;2022-09-27T06:36:11;3.30;;;1.83;;
16288;SDS011;26089;43.538;5.250;2022-09-27T06:38:38;2.97;;;1.50;;
16288;SDS011;26089;43.538;5.250;2022-09-27T06:41:05;1.53;;;1.53;;
16288;SDS011;26089;43.538;5.250;2022-09-27T06:43:33;1.73;;;1.50;;
16288;SDS011;26089;43.538;5.250;2022-09-27T06:46:03;1.70;;;1.60;;
16288;SDS011;26089;43.538;5.250;2022-09-27T06:48:30;4.57;;;1.67;;
16288;SDS011;26089;43.538;5.250;2022-09-27T06:50:58;1.50;;;1.40;;
16288;SDS011;26089;43.538;5.250;2022-09-27T06:53:25;2.00;;;1.90;;
16288;SDS011;26089;43.538;5.250;2022-09-27T06:55:56;3.50;;;1.87;;
16288;SDS011;26089;43.538;5.250;2022-09-27T06:58:24;2.17;;;1.60;;
16288;SDS011;26089;43.538;5.250;2022-09-27T07:01:11;4.07;;;1.70;;
16288;SDS011;26089;43.538;5.250;2022-09-27T07:03:38;2.13;;;1.90;;
16288;SDS011;26089;43.538;5.250;2022-09-27T07:06:11;1.40;;;1.40;;
16288;SDS011;26089;43.538;5.250;2022-09-27T07:08:44;3.77;;;1.70;;
16288;SDS011;26089;43.538;5.250;2022-09-27T07:11:16;2.90;;;1.90;;
16288;SDS011;26089;43.538;5.250;2022-09-27T07:13:43;3.10;;;1.53;;
16288;SDS011;26089;43.538;5.250;2022-09-27T07:16:12;2.80;;;2.43;;
16288;SDS011;26089;43.538;5.250;2022-09-27T07:18:40;2.90;;;1.60;;
16288;SDS011;26089;43.538;5.250;2022-09-27T07:21:07;4.07;;;2.20;;
16288;SDS011;26089;43.538;5.250;2022-09-27T07:23:34;2.10;;;1.90;;
16288;SDS011;26089;43.538;5.250;2022-09-27T07:26:02;2.47;;;1.50;;
16288;SDS011;26089;43.538;5.250;2022-09-27T07:28:31;2.00;;;1.63;;
16288;SDS011;26089;43.538;5.250;2022-09-27T07:30:59;2.50;;;1.77;;
16288;SDS011;26089;43.538;5.250;2022-09-27T07:33:29;2.97;;;1.60;;
16288;SDS011;26089;43.538;5.250;2022-09-27T07:35:57;1.87;;;1.57;;
16288;SDS011;26089;43.538;5.250;2022-09-27T07:38:24;2.63;;;1.57;;
16288;SDS011;26089;43.538;5.250;2022-09-27T07:40:51;3.37;;;1.70;;
16288;SDS011;26089;43.538;5.250;2022-09-27T07:43:18;4.50;;;1.60;;
16288;SDS011;26089;43.538;5.250;2022-09-27T07:45:45;3.63;;;1.70;;
16288;SDS011;26089;43.538;5.250;2022-09-27T07:48:13;3.27;;;2.07;;
16288;SDS011;26089;43.538;5.250;2022-09-27T07:50:42;2.80;;;1.60;;
16288;SDS011;26089;43.538;5.250;2022-09-27T07:53:09;5.50;;;1.80;;
16288;SDS011;26089;43.538;5.250;2022-09-27T07:55:38;3.67;;;1.50;;
16288;SDS011;26089;43.538;5.250;2022-09-27T07:58:07;4.33;;;1.30;;
16288;SDS011;26089;43.538;5.250;2022-09-27T08:00:35;4.20;;;1.60;;
16288;SDS011;26089;43.538;5.250;2022-09-27T08:03:04;2.07;;;1.20;;
16288;SDS011;26089;43.538;5.250;2022-09-27T08:05:32;2.70;;;1.33;;
16288;SDS011;26089;43.538;5.250;2022-09-27T08:08:01;2.77;;;1.40;;
16288;SDS011;26089;43.538;5.250;2022-09-27T08:10:29;2.67;;;1.30;;
16288;SDS011;26089;43.538;5.250;2022-09-27T08:12:56;1.90;;;1.10;;
16288;SDS011;26089;43.538;5.250;2022-09-27T08:15:24;3.60;;;1.30;;
16288;SDS011;26089;43.538;5.250;2022-09-27T08:17:52;2.60;;;1.50;;
16288;SDS011;26089;43.538;5.250;2022-09-27T08:20:20;3.90;;;1.40;;
16288;SDS011;26089;43.538;5.250;2022-09-27T08:22:47;2.57;;;1.10;;
16288;SDS011;26089;43.538;5.250;2022-09-27T08:25:15;5.37;;;1.80;;
16288;SDS011;26089;43.538;5.250;2022-09-27T08:27:42;3.47;;;1.17;;
16288;SDS011;26089;43.538;5.250;2022-09-27T08:30:10;5.73;;;2.00;;
16288;SDS011;26089;43.538;5.250;2022-09-27T08:32:37;4.83;;;1.20;;
16288;SDS011;26089;43.538;5.250;2022-09-27T08:35:04;3.40;;;1.50;;
16288;SDS011;26089;43.538;5.250;2022-09-27T08:37:32;7.07;;;1.63;;
16288;SDS011;26089;43.538;5.250;2022-09-27T08:40:00;4.93;;;1.40;;
16288;SDS011;26089;43.538;5.250;2022-09-27T08:42:32;2.87;;;1.60;;
16288;SDS011;26089;43.538;5.250;2022-09-27T08:45:07;5.93;;;1.57;;
16288;SDS011;26089;43.538;5.250;2022-09-27T08:47:39;4.07;;;1.50;;
16288;SDS011;26089;43.538;5.250;2022-09-27T08:50:16;2.40;;;1.27;;
16288;SDS011;26089;43.538;5.250;2022-09-27T08:52:51;3.10;;;1.30;;
16288;SDS011;26089;43.538;5.250;2022-09-27T08:55:24;0.93;;;0.93;;
16288;SDS011;26089;43.538;5.250;2022-09-27T08:57:58;5.10;;;1.10;;
16288;SDS011;26089;43.538;5.250;2022-09-27T09:00:27;4.43;;;1.30;;
16288;SDS011;26089;43.538;5.250;2022-09-27T09:02:55;2.80;;;1.20;;
16288;SDS011;26089;43.538;5.250;2022-09-27T09:05:27;4.90;;;1.20;;
16288;SDS011;26089;43.538;5.250;2022-09-27T09:08:14;6.17;;;1.63;;
16288;SDS011;26089;43.538;5.250;2022-09-27T09:10:51;3.53;;;1.10;;
16288;SDS011;26089;43.538;5.250;2022-09-27T09:13:47;4.47;;;1.30;;
16288;SDS011;26089;43.538;5.250;2022-09-27T09:16:42;4.90;;;1.37;;
16288;SDS011;26089;43.538;5.250;2022-09-27T09:19:20;2.77;;;1.20;;
16288;SDS011;26089;43.538;5.250;2022-09-27T09:21:58;4.10;;;1.00;;
16288;SDS011;26089;43.538;5.250;2022-09-27T09:24:44;2.63;;;0.90;;
16288;SDS011;26089;43.538;5.250;2022-09-27T09:27:21;2.80;;;1.37;;
16288;SDS011;26089;43.538;5.250;2022-09-27T09:30:03;3.23;;;1.30;;
16288;SDS011;26089;43.538;5.250;2022-09-27T09:32:45;2.23;;;1.20;;
16288;SDS011;26089;43.538;5.250;2022-09-27T09:35:24;1.33;;;1.30;;
16288;SDS011;26089;43.538;5.250;2022-09-27T09:37:56;5.00;;;1.50;;
16288;SDS011;26089;43.538;5.250;2022-09-27T09:40:27;5.70;;;1.33;;
16288;SDS011;26089;43.538;5.250;2022-09-27T09:43:01;2.43;;;1.30;;
16288;SDS011;26089;43.538;5.250;2022-09-27T09:45:37;5.37;;;1.67;;
16288;SDS011;26089;43.538;5.250;2022-09-27T09:48:10;3.03;;;1.30;;
16288;SDS011;26089;43.538;5.250;2022-09-27T09:50:43;4.20;;;1.40;;
16288;SDS011;26089;43.538;5.250;2022-09-27T09:53:14;3.67;;;1.37;;
16288;SDS011;26089;43.538;5.250;2022-09-27T09:55:45;4.70;;;1.00;;
16288;SDS011;26089;43.538;5.250;2022-09-27T09:58:22;2.53;;;1.23;;
16288;SDS011;26089;43.538;5.250;2022-09-27T10:00:56;4.50;;;1.27;;
16288;SDS011;26089;43.538;5.250;2022-09-27T10:03:26;4.23;;;1.20;;
16288;SDS011;26089;43.538;5.250;2022-09-27T10:05:53;3.70;;;1.40;;
16288;SDS011;26089;43.538;5.250;2022-09-27T10:08:21;1.90;;;1.00;;
16288;SDS011;26089;43.538;5.250;2022-09-27T10:10:48;2.50;;;1.27;;
16288;SDS011;26089;43.538;5.250;2022-09-27T10:13:16;2.17;;;1.00;;
16288;SDS011;26089;43.538;5.250;2022-09-27T10:15:46;4.30;;;1.40;;
16288;SDS011;26089;43.538;5.250;2022-09-27T10:18:22;3.03;;;1.30;;
16288;SDS011;26089;43.538;5.250;2022-09-27T10:20:51;3.50;;;1.50;;
16288;SDS011;26089;43.538;5.250;2022-09-27T10:23:22;2.77;;;1.27;;
16288;SDS011;26089;43.538;5.250;2022-09-27T10:25:51;2.20;;;1.17;;
16288;SDS011;26089;43.538;5.250;2022-09-27T10:28:30;3.23;;;1.40;;
16288;SDS011;26089;43.538;5.250;2022-09-27T10:31:00;2.90;;;1.10;;
16288;SDS011;26089;43.538;5.250;2022-09-27T10:33:30;2.57;;;1.20;;
16288;SDS011;26089;43.538;5.250;2022-09-27T10:35:58;2.60;;;1.10;;
16288;SDS011;26089;43.538;5.250;2022-09-27T10:38:27;2.57;;;1.53;;
16288;SDS011;26089;43.538;5.250;2022-09-27T10:40:55;3.23;;;1.27;;
16288;SDS011;26089;43.538;5.250;2022-09-27T10:43:25;3.23;;;1.10;;
16288;SDS011;26089;43.538;5.250;2022-09-27T10:46:09;1.40;;;1.20;;
16288;SDS011;26089;43.538;5.250;2022-09-27T10:48:42;2.40;;;1.00;;
16288;SDS011;26089;43.538;5.250;2022-09-27T10:51:21;2.00;;;1.10;;
16288;SDS011;26089;43.538;5.250;2022-09-27T10:53:52;2.70;;;1.00;;
16288;SDS011;26089;43.538;5.250;2022-09-27T10:56:23;2.20;;;1.43;;
16288;SDS011;26089;43.538;5.250;2022-09-27T10:58:53;1.23;;;0.93;;
16288;SDS011;26089;43.538;5.250;2022-09-27T11:01:22;3.00;;;0.97;;
16288;SDS011;26089;43.538;5.250;2022-09-27T11:03:52;4.93;;;1.10;;
16288;SDS011;26089;43.538;5.250;2022-09-27T11:06:27;2.80;;;1.10;;
16288;SDS011;26089;43.538;5.250;2022-09-27T11:09:07;1.97;;;1.10;;
16288;SDS011;26089;43.538;5.250;2022-09-27T11:11:40;1.13;;;0.93;;
16288;SDS011;26089;43.538;5.250;2022-09-27T11:14:16;2.50;;;1.10;;
16288;SDS011;26089;43.538;5.250;2022-09-27T11:16:51;2.60;;;1.20;;
16288;SDS011;26089;43.538;5.250;2022-09-27T11:19:47;1.40;;;1.07;;
16288;SDS011;26089;43.538;5.250;2022-09-27T11:22:26;2.83;;;1.13;;
16288;SDS011;26089;43.538;5.250;2022-09-27T11:25:15;1.80;;;1.13;;
16288;SDS011;26089;43.538;5.250;2022-09-27T11:27:53;3.40;;;1.30;;
16288;SDS011;26089;43.538;5.250;2022-09-27T11:30:27;1.60;;;1.20;;
16288;SDS011;26089;43.538;5.250;2022-09-27T11:33:08;1.23;;;0.80;;
16288;SDS011;26089;43.538;5.250;2022-09-27T11:35:54;4.80;;;1.60;;
16288;SDS011;26089;43.538;5.250;2022-09-27T11:38:29;3.17;;;1.17;;
16288;SDS011;26089;43.538;5.250;2022-09-27T11:41:08;1.93;;;1.13;;
16288;SDS011;26089;43.538;5.250;2022-09-27T11:43:48;1.07;;;0.97;;
16288;SDS011;26089;43.538;5.250;2022-09-27T11:46:27;5.00;;;1.23;;
16288;SDS011;26089;43.538;5.250;2022-09-27T11:49:00;3.27;;;0.90;;
16288;SDS011;26089;43.538;5.250;2022-09-27T11:51:48;1.90;;;1.10;;
16288;SDS011;26089;43.538;5.250;2022-09-27T11:54:30;5.47;;;1.40;;
16288;SDS011;26089;43.538;5.250;2022-09-27T11:57:12;3.00;;;1.20;;
16288;SDS011;26089;43.538;5.250;2022-09-27T11:59:52;1.50;;;1.00;;
16288;SDS011;26089;43.538;5.250;2022-09-27T12:02:41;1.70;;;1.07;;
16288;SDS011;26089;43.538;5.250;2022-09-27T12:05:24;2.83;;;1.20;;
16288;SDS011;26089;43.538;5.250;2022-09-27T12:08:02;1.83;;;1.10;;
16288;SDS011;26089;43.538;5.250;2022-09-27T12:10:38;2.20;;;1.30;;
16288;SDS011;26089;43.538;5.250;2022-09-27T12:13:08;2.23;;;1.00;;
16288;SDS011;26089;43.538;5.250;2022-09-27T12:15:39;2.37;;;1.00;;
16288;SDS011;26089;43.538;5.250;2022-09-27T12:18:12;2.73;;;1.37;;
16288;SDS011;26089;43.538;5.250;2022-09-27T12:20:51;2.40;;;1.20;;
16288;SDS011;26089;43.538;5.250;2022-09-27T12:23:21;2.07;;;1.03;;
16288;SDS011;26089;43.538;5.250;2022-09-27T12:25:52;2.93;;;1.40;;
16288;SDS011;26089;43.538;5.250;2022-09-27T12:28:25;1.47;;;1.07;;
16288;SDS011;26089;43.538;5.250;2022-09-27T12:31:03;2.60;;;1.30;;
16288;SDS011;26089;43.538;5.250;2022-09-27T12:33:37;4.00;;;1.20;;
16288;SDS011;26089;43.538;5.250;2022-09-27T12:36:08;3.07;;;1.40;;
16288;SDS011;26089;43.538;5.250;2022-09-27T12:38:44;5.90;;;1.17;;
16288;SDS011;26089;43.538;5.250;2022-09-27T12:41:17;4.03;;;1.10;;
16288;SDS011;26089;43.538;5.250;2022-09-27T12:43:47;2.95;;;1.00;;
16288;SDS011;26089;43.538;5.250;2022-09-27T12:46:17;2.17;;;0.93;;
16288;SDS011;26089;43.538;5.250;2022-09-27T12:48:57;1.55;;;1.08;;
16288;SDS011;26089;43.538;5.250;2022-09-27T12:51:31;3.10;;;1.05;;
16288;SDS011;26089;43.538;5.250;2022-09-27T12:54:08;2.45;;;1.17;;
16288;SDS011;26089;43.538;5.250;2022-09-27T12:56:50;5.47;;;1.52;;
16288;SDS011;26089;43.538;5.250;2022-09-27T12:59:32;2.50;;;1.05;;
16288;SDS011;26089;43.538;5.250;2022-09-27T13:02:26;2.25;;;1.20;;
16288;SDS011;26089;43.538;5.250;2022-09-27T13:05:21;1.50;;;0.93;;
16288;SDS011;26089;43.538;5.250;2022-09-27T13:11:05;4.28;;;1.48;;
16288;SDS011;26089;43.538;5.250;2022-09-27T13:13:36;2.47;;;1.17;;
16288;SDS011;26089;43.538;5.250;2022-09-27T13:16:05;1.77;;;1.03;;
16288;SDS011;26089;43.538;5.250;2022-09-27T13:18:50;1.00;;;0.90;;
16288;SDS011;26089;43.538;5.250;2022-09-27T13:36:16;1.87;;;1.10;;
16288;SDS011;26089;43.538;5.250;2022-09-27T13:41:53;2.40;;;1.10;;
16288;SDS011;26089;43.538;5.250;2022-09-27T13:44:32;3.00;;;1.20;;
16288;SDS011;26089;43.538;5.250;2022-09-27T13:47:13;4.77;;;1.53;;
16288;SDS011;26089;43.538;5.250;2022-09-27T13:49:50;2.47;;;1.10;;
16288;SDS011;26089;43.538;5.250;2022-09-27T13:52:21;2.73;;;1.20;;
16288;SDS011;26089;43.538;5.250;2022-09-27T13:54:53;1.83;;;1.00;;
16288;SDS011;26089;43.538;5.250;2022-09-27T13:57:39;2.57;;;1.40;;
16288;SDS011;26089;43.538;5.250;2022-09-27T14:00:11;1.43;;;0.90;;
16288;SDS011;26089;43.538;5.250;2022-09-27T14:02:41;1.87;;;1.00;;
16288;SDS011;26089;43.538;5.250;2022-09-27T14:05:17;2.47;;;1.27;;
16288;SDS011;26089;43.538;5.250;2022-09-27T14:07:48;3.03;;;1.00;;
16288;SDS011;26089;43.538;5.250;2022-09-27T14:10:17;3.83;;;1.10;;
16288;SDS011;26089;43.538;5.250;2022-09-27T14:12:49;3.27;;;1.07;;
16288;SDS011;26089;43.538;5.250;2022-09-27T14:15:20;1.80;;;1.40;;
16288;SDS011;26089;43.538;5.250;2022-09-27T14:17:49;2.93;;;1.00;;
16288;SDS011;26089;43.538;5.250;2022-09-27T14:20:34;2.37;;;1.30;;
16288;SDS011;26089;43.538;5.250;2022-09-27T14:23:04;1.37;;;1.17;;
16288;SDS011;26089;43.538;5.250;2022-09-27T14:25:31;1.03;;;1.03;;
16288;SDS011;26089;43.538;5.250;2022-09-27T14:27:58;1.87;;;0.80;;
16288;SDS011;26089;43.538;5.250;2022-09-27T14:30:27;3.10;;;1.10;;
16288;SDS011;26089;43.538;5.250;2022-09-27T14:32:55;3.37;;;0.90;;
16288;SDS011;26089;43.538;5.250;2022-09-27T14:35:27;3.07;;;1.30;;
16288;SDS011;26089;43.538;5.250;2022-09-27T14:38:14;3.40;;;1.27;;
16288;SDS011;26089;43.538;5.250;2022-09-27T14:40:53;4.80;;;1.47;;
16288;SDS011;26089;43.538;5.250;2022-09-27T14:43:23;3.93;;;1.30;;
16288;SDS011;26089;43.538;5.250;2022-09-27T14:45:56;3.07;;;0.97;;
16288;SDS011;26089;43.538;5.250;2022-09-27T14:48:26;1.70;;;0.97;;
16288;SDS011;26089;43.538;5.250;2022-09-27T14:50:56;4.13;;;1.27;;
16288;SDS011;26089;43.538;5.250;2022-09-27T14:53:28;2.73;;;1.20;;
16288;SDS011;26089;43.538;5.250;2022-09-27T14:55:56;2.60;;;1.00;;
16288;SDS011;26089;43.538;5.250;2022-09-27T14:58:25;2.10;;;1.30;;
16288;SDS011;26089;43.538;5.250;2022-09-27T15:00:54;4.03;;;1.43;;
16288;SDS011;26089;43.538;5.250;2022-09-27T15:03:24;1.87;;;1.20;;
16288;SDS011;26089;43.538;5.250;2022-09-27T15:05:54;1.17;;;0.90;;
16288;SDS011;26089;43.538;5.250;2022-09-27T15:08:24;2.73;;;1.30;;
16288;SDS011;26089;43.538;5.250;2022-09-27T15:10:54;2.23;;;1.13;;
16288;SDS011;26089;43.538;5.250;2022-09-27T15:13:22;1.30;;;1.20;;
16288;SDS011;26089;43.538;5.250;2022-09-27T15:15:51;3.60;;;1.53;;
16288;SDS011;26089;43.538;5.250;2022-09-27T15:21:12;2.60;;;1.43;;
16288;SDS011;26089;43.538;5.250;2022-09-27T15:23:41;2.93;;;1.30;;
16288;SDS011;26089;43.538;5.250;2022-09-27T15:26:11;1.97;;;1.30;;
16288;SDS011;26089;43.538;5.250;2022-09-27T15:28:42;2.93;;;1.40;;
16288;SDS011;26089;43.538;5.250;2022-09-27T15:31:10;0.93;;;0.80;;
16288;SDS011;26089;43.538;5.250;2022-09-27T15:33:38;2.53;;;1.10;;
16288;SDS011;26089;43.538;5.250;2022-09-27T15:36:08;2.67;;;1.20;;
16288;SDS011;26089;43.538;5.250;2022-09-27T15:38:36;1.10;;;1.00;;
16288;SDS011;26089;43.538;5.250;2022-09-27T15:41:11;1.67;;;1.10;;
16288;SDS011;26089;43.538;5.250;2022-09-27T15:43:40;2.73;;;1.30;;